createdAt,value
2023-02-14T00:04:59.532Z,7.50
2023-02-14T00:10:06.854Z,11.38
2023-02-14T00:15:24.080Z,11.15
2023-02-14T00:20:31.298Z,9.00
2023-02-14T00:25:38.096Z,9.65
2023-02-14T00:30:47.650Z,6.20
2023-02-14T00:35:54.187Z,10.73
2023-02-14T00:41:01.230Z,7.97
2023-02-14T00:46:09.524Z,9.73
2023-02-14T00:51:18.657Z,9.03
2023-02-14T00:56:26.922Z,8.50
2023-02-14T01:01:35.023Z,8.38
2023-02-14T01:11:49.169Z,10.70
2023-02-14T01:16:57.228Z,11.70
2023-02-14T01:22:04.548Z,9.52
2023-02-14T01:27:11.680Z,14.65
2023-02-14T01:32:20.105Z,10.88
2023-02-14T01:37:26.927Z,9.82
2023-02-14T01:42:35.075Z,9.73
2023-02-14T01:47:46.409Z,10.40
2023-02-14T01:52:57.342Z,10.80
2023-02-14T01:58:08.114Z,7.70
2023-02-14T02:03:17.756Z,10.75
2023-02-14T02:08:24.618Z,9.77
2023-02-14T02:13:30.952Z,11.85
2023-02-14T02:18:58.783Z,10.10
2023-02-14T02:24:33.092Z,11.73
2023-02-14T02:30:23.910Z,13.10
2023-02-14T02:36:06.885Z,10.73
2023-02-14T02:41:24.906Z,10.82
2023-02-14T02:46:48.974Z,14.97
2023-02-14T02:52:17.324Z,8.82
2023-02-14T02:57:28.591Z,8.82
2023-02-14T03:03:00.427Z,11.45
2023-02-14T03:08:12.799Z,10.57
2023-02-14T03:14:09.967Z,9.30
2023-02-14T03:20:06.162Z,9.95
2023-02-14T03:25:33.094Z,13.75
2023-02-14T03:30:48.451Z,11.85
2023-02-14T03:36:03.259Z,9.90
2023-02-14T03:41:17.135Z,9.18
2023-02-14T03:46:29.775Z,12.52
2023-02-14T03:51:38.018Z,8.30
2023-02-14T03:56:52.424Z,9.45
2023-02-14T04:02:08.460Z,10.55
2023-02-14T04:07:18.440Z,12.02
2023-02-14T04:12:37.187Z,8.93
2023-02-14T04:18:02.313Z,10.60
2023-02-14T04:23:08.513Z,12.10
2023-02-14T04:28:17.199Z,11.93
2023-02-14T04:33:23.535Z,10.15
2023-02-14T04:38:29.915Z,10.15
2023-02-14T04:43:37.528Z,11.38
2023-02-14T04:48:45.240Z,11.25
2023-02-14T04:53:52.762Z,18.52
2023-02-14T04:59:01.095Z,10.68
2023-02-14T05:04:08.151Z,8.80
2023-02-14T05:09:14.765Z,16.42
2023-02-14T05:14:23.995Z,9.45
2023-02-14T05:19:30.459Z,15.30
2023-02-14T05:24:36.740Z,13.85
2023-02-14T05:29:44.471Z,11.75
2023-02-14T05:34:50.882Z,12.40
2023-02-14T05:39:57.246Z,14.23
2023-02-14T05:45:05.476Z,10.82
2023-02-14T05:50:13.249Z,13.17
2023-02-14T05:55:20.071Z,13.45
2023-02-14T06:00:31.175Z,10.93
2023-02-14T06:05:37.825Z,9.87
2023-02-14T06:10:44.015Z,12.43
2023-02-14T06:15:51.804Z,12.77
2023-02-14T06:20:58.464Z,10.25
2023-02-14T06:26:08.056Z,16.33
2023-02-14T06:36:26.134Z,11.50
2023-02-14T06:41:32.658Z,16.65
2023-02-14T06:46:40.439Z,12.18
2023-02-14T06:51:46.823Z,16.08
2023-02-14T06:56:53.303Z,12.27
2023-02-14T07:02:01.001Z,13.02
2023-02-14T07:07:07.401Z,11.85
2023-02-14T07:12:13.453Z,10.55
2023-02-14T07:17:21.164Z,12.77
2023-02-14T07:22:29.089Z,12.57
2023-02-14T07:32:44.053Z,10.98
2023-02-14T07:37:52.700Z,10.33
2023-02-14T07:43:01.217Z,15.07
2023-02-14T07:48:09.189Z,13.82
2023-02-14T07:53:16.178Z,12.02
2023-02-14T07:58:22.554Z,10.18
2023-02-14T08:03:30.314Z,12.88
2023-02-14T08:08:36.714Z,9.38
2023-02-14T08:13:43.635Z,13.55
2023-02-14T08:18:51.606Z,9.23
2023-02-14T08:23:59.087Z,10.95
2023-02-14T08:29:05.813Z,13.75
2023-02-14T08:34:13.726Z,12.05
2023-02-14T08:39:20.137Z,14.43
2023-02-14T08:44:26.796Z,13.38
2023-02-14T08:49:34.727Z,11.50
2023-02-14T08:54:41.493Z,12.45
2023-02-14T08:59:47.834Z,14.27
2023-02-14T09:04:55.984Z,10.95
2023-02-14T09:10:02.407Z,8.60
2023-02-14T09:15:11.556Z,11.15
2023-02-14T09:20:20.011Z,12.33
2023-02-14T09:25:26.360Z,13.07
2023-02-14T09:30:32.908Z,12.50
2023-02-14T09:35:40.949Z,10.98
2023-02-14T09:40:48.777Z,13.13
2023-02-14T09:45:58.376Z,12.07
2023-02-14T09:51:10.244Z,12.88
2023-02-14T09:56:27.641Z,12.93
2023-02-14T10:01:39.369Z,14.18
2023-02-14T10:06:55.726Z,9.30
2023-02-14T10:12:03.743Z,10.90
2023-02-14T10:17:17.394Z,9.45
2023-02-14T10:22:32.732Z,10.15
2023-02-14T10:27:42.745Z,12.73
2023-02-14T10:32:52.000Z,9.82
2023-02-14T10:38:11.964Z,14.57
2023-02-14T10:43:32.205Z,11.13
2023-02-14T10:48:53.347Z,11.48
2023-02-14T10:54:18.656Z,11.43
2023-02-14T10:59:29.304Z,16.48
2023-02-14T11:04:37.302Z,17.33
2023-02-14T11:09:45.238Z,13.65
2023-02-14T11:15:21.942Z,19.73
2023-02-14T11:20:31.707Z,13.38
2023-02-14T11:25:39.921Z,18.70
2023-02-14T11:30:49.765Z,12.00
2023-02-14T11:35:56.768Z,11.43
2023-02-14T11:41:06.465Z,13.57
2023-02-14T11:46:26.603Z,14.90
2023-02-14T11:51:37.537Z,15.38
2023-02-14T11:56:56.642Z,15.40
2023-02-14T12:02:15.661Z,12.57
2023-02-14T12:07:27.870Z,13.40
2023-02-14T12:12:36.356Z,13.55
2023-02-14T12:17:47.976Z,11.93
2023-02-14T12:23:03.192Z,11.70
2023-02-14T12:28:16.888Z,16.42
2023-02-14T12:33:26.293Z,15.98
2023-02-14T12:38:48.228Z,14.35
2023-02-14T12:43:58.682Z,15.63
2023-02-14T12:49:51.176Z,16.90
2023-02-14T12:55:19.888Z,13.73
2023-02-14T13:00:40.032Z,13.35
2023-02-14T13:05:59.415Z,15.93
2023-02-14T13:11:17.449Z,12.70
2023-02-14T13:16:36.197Z,14.40
2023-02-14T13:21:44.826Z,12.13
2023-02-14T13:26:55.744Z,14.27
2023-02-14T13:32:05.469Z,16.88
2023-02-14T13:37:17.603Z,20.92
2023-02-14T13:42:54.992Z,13.32
2023-02-14T13:48:08.522Z,9.90
2023-02-14T13:53:30.593Z,15.35
2023-02-14T13:58:37.880Z,12.45
2023-02-14T14:04:03.251Z,12.35
2023-02-14T14:09:13.741Z,14.07
2023-02-14T14:14:36.948Z,12.98
2023-02-14T14:19:47.101Z,11.10
2023-02-14T14:25:01.168Z,18.15
2023-02-14T14:30:19.654Z,14.43
2023-02-14T14:35:28.209Z,14.30
2023-02-14T14:40:37.535Z,15.02
2023-02-14T14:45:47.386Z,15.85
2023-02-14T14:50:55.677Z,16.02
2023-02-14T14:56:03.484Z,14.60
2023-02-14T15:01:21.682Z,16.65
2023-02-14T15:06:29.906Z,13.38
2023-02-14T15:11:54.662Z,13.77
2023-02-14T15:17:05.734Z,19.00
2023-02-14T15:22:23.226Z,17.60
2023-02-14T15:27:31.000Z,18.35
2023-02-14T15:32:39.648Z,19.05
2023-02-14T15:37:50.653Z,14.13
2023-02-14T15:42:58.627Z,14.55
2023-02-14T15:48:14.603Z,14.52
2023-02-14T15:53:45.233Z,16.33
2023-02-14T15:58:56.271Z,18.67
2023-02-14T16:04:07.419Z,16.63
2023-02-14T16:09:30.099Z,18.48
2023-02-14T16:14:42.763Z,15.63
2023-02-14T16:19:50.048Z,19.67
2023-02-14T16:25:00.117Z,20.50
2023-02-14T16:30:09.914Z,18.60
2023-02-14T16:35:23.841Z,19.13
2023-02-14T16:40:35.348Z,21.30
2023-02-14T16:45:42.763Z,22.75
2023-02-14T16:50:50.104Z,20.75
2023-02-14T16:56:02.022Z,23.87
2023-02-14T17:01:10.965Z,22.10
2023-02-14T17:11:30.972Z,26.52
2023-02-14T17:16:41.172Z,25.33
2023-02-14T17:21:52.575Z,23.80
2023-02-14T17:27:06.210Z,26.67
2023-02-14T17:32:15.513Z,21.60
2023-02-14T17:37:25.687Z,23.70
2023-02-14T17:42:38.668Z,26.25
2023-02-14T17:47:46.926Z,21.55
2023-02-14T17:52:58.246Z,26.00
2023-02-14T17:58:10.345Z,27.52
2023-02-14T18:03:19.428Z,24.52
2023-02-14T18:08:37.161Z,25.02
2023-02-14T18:13:50.128Z,20.75
2023-02-14T18:19:00.308Z,22.50
2023-02-14T18:24:11.468Z,25.77
2023-02-14T18:29:24.643Z,21.45
2023-02-14T18:34:38.630Z,24.15
2023-02-14T18:39:47.532Z,22.33
2023-02-14T18:44:59.146Z,22.10
2023-02-14T18:50:14.180Z,18.88
2023-02-14T18:55:27.998Z,27.35
2023-02-14T19:00:40.279Z,29.40
2023-02-14T19:05:57.184Z,24.35
2023-02-14T19:11:12.708Z,20.98
2023-02-14T19:16:30.242Z,23.08
2023-02-14T19:21:41.497Z,23.63
2023-02-14T19:26:50.427Z,28.35
2023-02-14T19:32:01.069Z,21.85
2023-02-14T19:37:21.976Z,24.17
2023-02-14T19:42:43.479Z,19.40
2023-02-14T19:47:58.483Z,25.90
2023-02-14T19:53:12.737Z,21.97
2023-02-14T19:58:23.557Z,22.52
2023-02-14T20:03:38.754Z,21.05
2023-02-14T20:08:48.677Z,21.92
2023-02-14T20:14:00.440Z,21.08
2023-02-14T20:19:20.264Z,20.38
2023-02-14T20:24:33.169Z,20.95
2023-02-14T20:29:44.443Z,22.65
2023-02-14T20:35:06.255Z,19.95
2023-02-14T20:40:20.306Z,25.77
2023-02-14T20:45:30.748Z,37.15
2023-02-14T20:50:49.560Z,28.27
2023-02-14T20:56:05.048Z,28.48
2023-02-14T21:01:16.494Z,40.75
2023-02-14T21:06:37.395Z,44.75
2023-02-14T21:11:47.761Z,56.47
2023-02-14T21:17:01.378Z,74.00
2023-02-14T21:22:14.393Z,71.53
2023-02-14T21:27:24.273Z,70.60
2023-02-14T21:32:36.284Z,53.90
2023-02-14T21:37:47.462Z,55.85
2023-02-14T21:42:57.878Z,50.72
2023-02-14T21:48:25.027Z,61.10
2023-02-14T21:53:37.854Z,72.30
2023-02-14T21:58:47.251Z,59.05
2023-02-14T22:03:58.193Z,61.22
2023-02-14T22:09:08.623Z,53.10
2023-02-14T22:14:17.036Z,58.28
2023-02-14T22:19:24.524Z,52.40
2023-02-14T22:24:32.513Z,56.03
2023-02-14T22:29:39.135Z,46.08
2023-02-14T22:34:46.850Z,51.58
2023-02-14T22:39:55.005Z,56.40
2023-02-14T22:45:01.540Z,44.97
2023-02-14T22:50:10.916Z,39.43
2023-02-14T22:55:19.562Z,49.53
2023-02-14T23:00:26.749Z,43.72
2023-02-14T23:05:33.274Z,47.47
2023-02-14T23:10:41.159Z,43.55
2023-02-14T23:16:05.033Z,37.67
2023-02-14T23:21:33.120Z,43.55
2023-02-14T23:26:41.159Z,40.65
2023-02-14T23:31:47.955Z,33.53
2023-02-14T23:36:57.876Z,58.28
2023-02-14T23:42:05.965Z,57.28
2023-02-14T23:47:13.244Z,62.73
2023-02-14T23:52:19.744Z,59.60
2023-02-14T23:57:28.933Z,55.78
